createdAt,value
2024-03-11T00:01:31.277Z,70.57
2024-03-11T00:04:02.544Z,70.70
2024-03-11T00:06:36.268Z,70.88
2024-03-11T00:09:16.952Z,71.02
2024-03-11T00:11:56.452Z,70.94
2024-03-11T00:14:30.239Z,70.75
2024-03-11T00:17:03.730Z,70.68
2024-03-11T00:19:35.005Z,70.83
2024-03-11T00:22:05.952Z,70.88
2024-03-11T00:24:36.878Z,70.84
2024-03-11T00:27:09.434Z,70.89
2024-03-11T00:29:40.638Z,70.92
2024-03-11T00:32:15.362Z,71.07
2024-03-11T00:34:46.842Z,71.19
2024-03-11T00:37:18.048Z,71.17
2024-03-11T00:39:49.458Z,71.32
2024-03-11T00:42:20.852Z,71.35
2024-03-11T00:44:52.004Z,71.19
2024-03-11T00:47:23.707Z,71.33
2024-03-11T00:49:54.647Z,71.22
2024-03-11T00:52:26.380Z,71.28
2024-03-11T00:54:57.759Z,71.16
2024-03-11T00:57:28.726Z,71.31
2024-03-11T01:00:00.201Z,71.34
2024-03-11T01:02:31.343Z,71.36
2024-03-11T01:05:02.540Z,71.40
2024-03-11T01:07:44.896Z,71.53
2024-03-11T01:10:18.927Z,71.63
2024-03-11T01:12:51.214Z,71.77
2024-03-11T01:15:23.292Z,71.62
2024-03-11T01:17:54.212Z,71.60
2024-03-11T01:20:25.562Z,71.48
2024-03-11T01:22:56.883Z,71.50
2024-03-11T01:25:27.780Z,71.42
2024-03-11T01:27:58.738Z,71.51
2024-03-11T01:30:29.762Z,71.40
2024-03-11T01:33:00.806Z,71.53
2024-03-11T01:35:31.949Z,71.71
2024-03-11T01:38:02.857Z,71.67
2024-03-11T01:40:33.819Z,71.88
2024-03-11T01:43:05.261Z,71.89
2024-03-11T01:45:36.386Z,71.87
2024-03-11T01:48:10.986Z,71.70
2024-03-11T01:50:44.654Z,71.50
2024-03-11T01:53:16.264Z,71.68
2024-03-11T01:55:49.488Z,71.59
2024-03-11T01:58:24.188Z,71.46
2024-03-11T02:00:56.577Z,71.56
2024-03-11T02:03:27.554Z,71.56
2024-03-11T02:05:58.953Z,71.63
2024-03-11T02:08:29.915Z,71.75
2024-03-11T02:11:00.913Z,71.92
2024-03-11T02:13:32.417Z,71.66
2024-03-11T02:16:03.723Z,71.56
2024-03-11T02:18:35.784Z,71.49
2024-03-11T02:21:07.296Z,71.43
2024-03-11T02:23:38.446Z,71.48
2024-03-11T02:26:09.454Z,71.22
2024-03-11T02:28:40.478Z,71.45
2024-03-11T02:31:11.378Z,71.60
2024-03-11T02:33:42.311Z,71.87
2024-03-11T02:36:13.402Z,72.00
2024-03-11T02:38:44.358Z,71.92
2024-03-11T02:41:15.784Z,72.23
2024-03-11T02:43:46.687Z,72.46
2024-03-11T02:46:18.542Z,72.57
2024-03-11T02:48:49.424Z,72.37
2024-03-11T02:51:20.844Z,72.20
2024-03-11T02:53:52.007Z,72.04
2024-03-11T02:56:23.585Z,72.35
2024-03-11T02:58:55.323Z,72.34
2024-03-11T03:01:27.266Z,72.35
2024-03-11T03:03:58.362Z,72.35
2024-03-11T03:06:29.582Z,72.37
2024-03-11T03:09:01.660Z,72.42
2024-03-11T03:11:32.686Z,72.79
2024-03-11T03:14:03.776Z,72.94
2024-03-11T03:16:34.836Z,73.01
2024-03-11T03:19:05.857Z,72.90
2024-03-11T03:21:37.965Z,72.76
2024-03-11T03:24:09.286Z,72.56
2024-03-11T03:26:40.216Z,72.76
2024-03-11T03:29:12.716Z,72.96
2024-03-11T03:31:43.762Z,72.88
2024-03-11T03:34:14.782Z,72.71
2024-03-11T03:36:46.444Z,72.85
2024-03-11T03:39:18.508Z,72.70
2024-03-11T03:41:51.673Z,72.82
2024-03-11T03:44:23.296Z,72.79
2024-03-11T03:46:56.617Z,72.80
2024-03-11T03:49:28.419Z,72.70
2024-03-11T03:52:01.103Z,72.06
2024-03-11T03:54:32.129Z,72.39
2024-03-11T03:57:03.150Z,72.00
2024-03-11T03:59:34.878Z,72.31
2024-03-11T04:02:06.044Z,72.50
2024-03-11T04:04:39.819Z,72.81
2024-03-11T04:07:11.562Z,73.07
2024-03-11T04:09:42.474Z,73.29
2024-03-11T04:12:13.741Z,73.35
2024-03-11T04:14:44.833Z,73.59
2024-03-11T04:17:15.910Z,73.74
2024-03-11T04:19:49.371Z,73.66
2024-03-11T04:22:21.550Z,73.56
2024-03-11T04:24:52.429Z,73.82
2024-03-11T04:27:23.975Z,73.68
2024-03-11T04:29:54.901Z,73.79
2024-03-11T04:32:25.889Z,74.10
2024-03-11T04:34:57.746Z,74.56
2024-03-11T04:37:28.723Z,74.47
2024-03-11T04:39:59.651Z,74.76
2024-03-11T04:42:31.002Z,74.92
2024-03-11T04:45:01.924Z,75.06
2024-03-11T04:47:33.061Z,74.98
2024-03-11T04:50:04.252Z,74.61
2024-03-11T04:52:35.244Z,74.44
2024-03-11T04:55:07.466Z,74.43
2024-03-11T04:57:38.595Z,74.43
2024-03-11T05:00:13.577Z,74.44
2024-03-11T05:02:44.681Z,74.46
2024-03-11T05:05:16.193Z,74.69
2024-03-11T05:07:47.184Z,74.77
2024-03-11T05:10:18.198Z,74.74
2024-03-11T05:12:50.967Z,74.47
2024-03-11T05:15:22.838Z,74.71
2024-03-11T05:17:54.116Z,74.30
2024-03-11T05:20:25.311Z,74.17
2024-03-11T05:22:56.341Z,74.15
2024-03-11T05:25:27.343Z,73.83
2024-03-11T05:27:59.590Z,73.93
2024-03-11T05:30:30.805Z,73.62
2024-03-11T05:33:03.487Z,73.95
2024-03-11T05:35:34.631Z,74.36
2024-03-11T05:38:05.884Z,74.11
2024-03-11T05:40:36.842Z,74.29
2024-03-11T05:43:08.006Z,73.73
2024-03-11T05:45:38.972Z,73.94
2024-03-11T05:48:11.179Z,74.01
2024-03-11T05:50:42.315Z,73.88
2024-03-11T05:53:14.360Z,73.77
2024-03-11T05:55:47.349Z,73.64
2024-03-11T05:58:18.496Z,73.88
2024-03-11T06:00:49.760Z,73.89
2024-03-11T06:03:20.722Z,74.38
2024-03-11T06:05:53.420Z,74.55
2024-03-11T06:08:24.974Z,74.19
2024-03-11T06:10:55.990Z,74.62
2024-03-11T06:13:27.015Z,74.77
2024-03-11T06:15:57.884Z,74.61
2024-03-11T06:18:30.295Z,74.12
2024-03-11T06:21:01.920Z,74.06
2024-03-11T06:23:33.525Z,73.91
2024-03-11T06:26:04.657Z,73.94
2024-03-11T06:28:35.801Z,73.91
2024-03-11T06:31:06.967Z,74.02
2024-03-11T06:33:37.868Z,73.88
2024-03-11T06:36:09.830Z,73.94
2024-03-11T06:38:41.544Z,74.14
2024-03-11T06:41:14.556Z,74.10
2024-03-11T06:43:46.125Z,74.18
2024-03-11T06:46:17.952Z,74.22
2024-03-11T06:48:49.300Z,74.17
2024-03-11T06:51:20.339Z,74.52
2024-03-11T06:53:51.488Z,74.11
2024-03-11T06:56:22.397Z,74.23
2024-03-11T06:58:53.368Z,73.94
2024-03-11T07:01:24.464Z,74.08
2024-03-11T07:03:55.666Z,74.32
2024-03-11T07:06:26.751Z,74.40
2024-03-11T07:08:57.701Z,74.20
2024-03-11T07:11:28.853Z,74.18
2024-03-11T07:13:59.912Z,74.17
2024-03-11T07:16:32.923Z,74.49
2024-03-11T07:19:03.843Z,74.30
2024-03-11T07:21:35.343Z,74.46
2024-03-11T07:24:07.328Z,74.45
2024-03-11T07:26:40.139Z,74.26
2024-03-11T07:29:12.543Z,74.05
2024-03-11T07:31:45.194Z,74.18
2024-03-11T07:34:16.377Z,74.36
2024-03-11T07:36:47.276Z,74.49
2024-03-11T07:39:18.559Z,74.32
2024-03-11T07:41:50.000Z,74.00
2024-03-11T07:44:20.932Z,73.83
2024-03-11T07:46:51.868Z,73.62
2024-03-11T07:49:22.940Z,73.46
2024-03-11T07:51:53.945Z,73.27
2024-03-11T07:54:24.933Z,73.32
2024-03-11T07:56:55.850Z,73.04
2024-03-11T07:59:26.810Z,72.79
2024-03-11T08:01:58.980Z,72.63
2024-03-11T08:04:30.300Z,72.11
2024-03-11T08:07:01.256Z,72.05
2024-03-11T08:09:32.245Z,71.83
2024-03-11T08:12:03.183Z,71.51
2024-03-11T08:14:34.840Z,71.38
2024-03-11T08:17:08.616Z,70.96
2024-03-11T08:19:39.731Z,71.25
2024-03-11T08:22:10.918Z,71.17
2024-03-11T08:24:41.886Z,70.94
2024-03-11T08:27:15.202Z,70.91
2024-03-11T08:29:46.349Z,70.79
2024-03-11T08:32:17.241Z,70.78
2024-03-11T08:34:49.808Z,70.55
2024-03-11T08:37:20.708Z,70.57
2024-03-11T08:39:52.183Z,70.76
2024-03-11T08:42:23.365Z,70.71
2024-03-11T08:44:55.205Z,70.65
2024-03-11T08:47:27.366Z,70.52
2024-03-11T08:49:59.771Z,70.54
2024-03-11T08:52:31.196Z,70.46
2024-03-11T08:55:02.165Z,70.55
2024-03-11T08:57:34.040Z,70.18
2024-03-11T09:00:07.652Z,69.72
2024-03-11T09:02:38.798Z,70.13
2024-03-11T09:05:14.017Z,69.47
2024-03-11T09:07:47.584Z,69.34
2024-03-11T09:10:18.843Z,68.75
2024-03-11T09:12:51.002Z,68.40
2024-03-11T09:15:25.613Z,67.98
2024-03-11T09:17:56.958Z,69.11
2024-03-11T09:20:29.217Z,71.61
2024-03-11T09:23:02.305Z,72.30
2024-03-11T09:25:33.302Z,71.45
2024-03-11T09:28:06.483Z,68.62
2024-03-11T09:30:39.577Z,67.45
2024-03-11T09:33:13.601Z,66.85
2024-03-11T09:35:44.932Z,66.18
2024-03-11T09:38:15.969Z,66.34
2024-03-11T09:40:49.011Z,66.43
2024-03-11T09:43:22.093Z,65.92
2024-03-11T09:45:53.398Z,65.80
2024-03-11T09:48:24.534Z,65.38
2024-03-11T09:50:58.980Z,65.32
2024-03-11T09:53:31.186Z,64.95
2024-03-11T09:56:04.309Z,67.43
2024-03-11T09:58:37.478Z,69.50
2024-03-11T10:01:10.918Z,68.59
2024-03-11T10:03:42.460Z,68.52
2024-03-11T10:06:14.450Z,66.38
2024-03-11T10:08:46.878Z,66.09
2024-03-11T10:11:22.785Z,65.60
2024-03-11T10:13:54.389Z,65.10
2024-03-11T10:16:27.659Z,64.92
2024-03-11T10:19:04.644Z,64.69
2024-03-11T10:21:36.929Z,64.57
2024-03-11T10:24:10.535Z,64.67
2024-03-11T10:26:43.406Z,64.63
2024-03-11T10:29:18.225Z,64.61
2024-03-11T10:31:53.132Z,65.05
2024-03-11T10:34:25.947Z,64.63
2024-03-11T10:37:02.374Z,64.40
2024-03-11T10:39:42.858Z,64.09
2024-03-11T10:42:30.087Z,64.14
2024-03-11T10:45:06.557Z,63.79
2024-03-11T10:47:40.287Z,63.92
2024-03-11T10:50:16.355Z,64.04
2024-03-11T10:52:50.139Z,63.86
2024-03-11T10:55:23.477Z,63.86
2024-03-11T10:57:58.226Z,64.12
2024-03-11T11:00:35.126Z,64.03
2024-03-11T11:03:15.528Z,63.87
2024-03-11T11:05:53.594Z,64.14
2024-03-11T11:08:31.621Z,64.39
2024-03-11T11:11:04.300Z,64.56
2024-03-11T11:13:38.268Z,64.25
2024-03-11T11:16:10.860Z,64.71
2024-03-11T11:18:44.109Z,64.43
2024-03-11T11:21:17.536Z,64.30
2024-03-11T11:23:49.018Z,64.03
2024-03-11T11:26:46.745Z,64.32
2024-03-11T11:29:25.972Z,64.49
2024-03-11T11:32:09.324Z,64.75
2024-03-11T11:34:57.096Z,65.06
2024-03-11T11:37:41.255Z,65.17
2024-03-11T11:40:33.387Z,65.13
2024-03-11T11:43:22.081Z,65.31
2024-03-11T11:45:57.382Z,65.48
2024-03-11T11:48:32.485Z,65.52
2024-03-11T11:51:04.364Z,65.67
2024-03-11T11:53:45.663Z,65.82
2024-03-11T11:56:28.134Z,66.41
2024-03-11T11:59:06.279Z,66.72
2024-03-11T12:01:52.604Z,66.84
2024-03-11T12:04:24.693Z,67.04
2024-03-11T12:06:55.816Z,67.30
2024-03-11T12:09:27.930Z,67.84
2024-03-11T12:12:01.826Z,67.83
2024-03-11T12:14:33.224Z,68.51
2024-03-11T12:17:09.464Z,68.91
2024-03-11T12:19:41.006Z,68.72
2024-03-11T12:22:16.835Z,68.35
2024-03-11T12:24:48.109Z,68.34
2024-03-11T12:27:19.083Z,68.37
2024-03-11T12:29:50.523Z,68.39
2024-03-11T12:32:25.250Z,69.07
2024-03-11T12:34:56.312Z,69.07
2024-03-11T12:37:27.527Z,69.14
2024-03-11T12:40:02.125Z,69.13
2024-03-11T12:42:33.380Z,68.93
2024-03-11T12:45:05.113Z,69.37
2024-03-11T12:47:36.096Z,69.47
2024-03-11T12:50:12.438Z,69.50
2024-03-11T12:52:45.016Z,69.47
2024-03-11T12:55:17.567Z,69.65
2024-03-11T12:57:49.111Z,69.71
2024-03-11T13:00:25.585Z,69.18
2024-03-11T13:03:13.286Z,69.26
2024-03-11T13:06:01.295Z,69.14
2024-03-11T13:08:34.600Z,69.55
2024-03-11T13:11:10.454Z,69.91
2024-03-11T13:13:43.234Z,70.10
2024-03-11T13:16:18.139Z,70.36
2024-03-11T13:18:53.682Z,70.86
2024-03-11T13:21:29.615Z,70.79
2024-03-11T13:24:00.772Z,70.90
2024-03-11T13:26:31.673Z,71.26
2024-03-11T13:29:03.533Z,71.34
2024-03-11T13:31:34.536Z,71.72
2024-03-11T13:34:06.824Z,71.82
2024-03-11T13:36:39.303Z,72.11
2024-03-11T13:39:18.238Z,72.18
2024-03-11T13:41:50.997Z,71.94
2024-03-11T13:44:22.670Z,72.01
2024-03-11T13:46:55.736Z,71.94
2024-03-11T13:49:26.940Z,71.77
2024-03-11T13:51:59.055Z,71.73
2024-03-11T13:54:30.309Z,71.95
2024-03-11T13:57:01.613Z,71.75
2024-03-11T13:59:34.193Z,72.17
2024-03-11T14:02:05.290Z,72.26
2024-03-11T14:04:36.296Z,72.25
2024-03-11T14:07:07.408Z,72.24
2024-03-11T14:09:38.580Z,72.03
2024-03-11T14:12:10.196Z,71.84
2024-03-11T14:14:42.344Z,71.90
2024-03-11T14:17:13.485Z,72.30
2024-03-11T14:19:46.380Z,72.12
2024-03-11T14:22:17.350Z,72.08
2024-03-11T14:24:49.480Z,73.74
2024-03-11T14:27:22.981Z,75.08
2024-03-11T14:29:54.489Z,73.01
2024-03-11T14:32:25.594Z,72.33
2024-03-11T14:34:56.589Z,72.49
2024-03-11T14:37:29.212Z,72.61
2024-03-11T14:40:01.986Z,72.31
2024-03-11T14:42:33.681Z,72.73
2024-03-11T14:45:05.375Z,72.65
2024-03-11T14:47:38.424Z,72.68
2024-03-11T14:50:16.918Z,72.61
2024-03-11T14:52:48.352Z,72.76
2024-03-11T14:55:19.240Z,72.67
2024-03-11T14:57:52.040Z,72.37
2024-03-11T15:00:27.352Z,72.13
2024-03-11T15:02:58.974Z,71.78
2024-03-11T15:05:31.164Z,71.73
2024-03-11T15:08:02.341Z,71.86
2024-03-11T15:10:34.754Z,71.79
2024-03-11T15:13:09.604Z,71.67
2024-03-11T15:15:42.833Z,71.60
2024-03-11T15:18:16.312Z,71.71
2024-03-11T15:20:51.359Z,71.70
2024-03-11T15:23:25.856Z,71.81
2024-03-11T15:25:58.402Z,71.72
2024-03-11T15:28:29.563Z,71.91
2024-03-11T15:31:01.798Z,71.74
2024-03-11T15:33:33.426Z,71.84
2024-03-11T15:36:04.395Z,71.81
2024-03-11T15:38:35.526Z,71.76
2024-03-11T15:41:06.838Z,71.61
2024-03-11T15:43:39.825Z,71.68
2024-03-11T15:46:12.063Z,72.03
2024-03-11T15:48:43.624Z,72.01
2024-03-11T15:51:16.287Z,72.15
2024-03-11T15:53:52.063Z,72.04
2024-03-11T15:56:25.024Z,71.90
2024-03-11T15:58:57.440Z,71.68
2024-03-11T16:01:32.984Z,71.71
2024-03-11T16:04:06.329Z,71.69
2024-03-11T16:06:39.060Z,71.29
2024-03-11T16:09:12.325Z,71.26
2024-03-11T16:11:44.996Z,71.05
2024-03-11T16:14:17.328Z,70.62
2024-03-11T16:16:51.649Z,70.75
2024-03-11T16:19:23.745Z,70.79
2024-03-11T16:21:55.114Z,70.95
2024-03-11T16:24:26.515Z,70.89
2024-03-11T16:26:57.776Z,70.80
2024-03-11T16:29:30.415Z,70.79
2024-03-11T16:32:01.333Z,70.82
2024-03-11T16:34:33.034Z,70.75
2024-03-11T16:37:06.018Z,70.85
2024-03-11T16:39:37.100Z,70.84
2024-03-11T16:42:08.663Z,71.35
2024-03-11T16:44:40.914Z,70.88
2024-03-11T16:47:12.622Z,70.97
2024-03-11T16:49:44.199Z,71.51
2024-03-11T16:52:17.011Z,71.57
2024-03-11T16:54:49.250Z,71.79
2024-03-11T16:57:23.445Z,72.01
2024-03-11T16:59:54.479Z,72.25
2024-03-11T17:02:29.611Z,72.35
2024-03-11T17:05:05.001Z,72.41
2024-03-11T17:07:36.589Z,72.21
2024-03-11T17:10:08.693Z,72.23
2024-03-11T17:12:45.197Z,71.99
2024-03-11T17:15:18.058Z,72.57
2024-03-11T17:17:51.860Z,72.66
2024-03-11T17:20:26.612Z,72.19
2024-03-11T17:22:59.032Z,71.60
2024-03-11T17:25:30.423Z,71.01
2024-03-11T17:28:07.294Z,70.77
2024-03-11T17:30:41.474Z,70.65
2024-03-11T17:33:15.764Z,70.96
2024-03-11T17:35:50.728Z,71.34
2024-03-11T17:38:24.357Z,70.97
2024-03-11T17:40:55.972Z,71.37
2024-03-11T17:43:28.351Z,71.60
2024-03-11T17:46:01.592Z,71.75
2024-03-11T17:48:35.964Z,71.78
2024-03-11T17:51:09.107Z,71.87
2024-03-11T17:53:40.909Z,72.00
2024-03-11T17:56:12.464Z,72.34
2024-03-11T17:58:45.548Z,72.51
2024-03-11T18:01:16.777Z,72.53
2024-03-11T18:03:51.316Z,72.30
2024-03-11T18:06:22.504Z,72.48
2024-03-11T18:08:53.517Z,72.28
2024-03-11T18:11:27.051Z,72.70
2024-03-11T18:13:58.033Z,72.81
2024-03-11T18:16:29.691Z,72.87
2024-03-11T18:19:01.180Z,73.25
2024-03-11T18:21:32.650Z,73.33
2024-03-11T18:24:05.137Z,73.43
2024-03-11T18:26:36.729Z,73.45
2024-03-11T18:29:07.664Z,73.72
2024-03-11T18:31:38.669Z,73.67
2024-03-11T18:34:10.260Z,73.77
2024-03-11T18:36:41.326Z,73.62
2024-03-11T18:39:19.818Z,73.67
2024-03-11T18:41:54.135Z,73.89
2024-03-11T18:44:25.916Z,73.89
2024-03-11T18:46:57.265Z,74.09
2024-03-11T18:49:28.280Z,74.09
2024-03-11T18:51:59.395Z,73.95
2024-03-11T18:54:30.430Z,74.11
2024-03-11T18:57:04.588Z,74.01
2024-03-11T18:59:36.406Z,74.22
2024-03-11T19:02:09.158Z,73.88
2024-03-11T19:04:40.152Z,74.16
2024-03-11T19:07:13.516Z,74.45
2024-03-11T19:09:47.015Z,74.63
2024-03-11T19:12:18.046Z,74.52
2024-03-11T19:14:49.065Z,74.30
2024-03-11T19:17:20.330Z,73.98
2024-03-11T19:19:52.316Z,74.07
2024-03-11T19:22:23.260Z,73.84
2024-03-11T19:24:54.276Z,73.83
2024-03-11T19:27:27.048Z,74.14
2024-03-11T19:29:59.011Z,73.84
2024-03-11T19:32:29.964Z,74.09
2024-03-11T19:35:02.840Z,73.74
2024-03-11T19:38:04.602Z,73.50
2024-03-11T19:40:40.475Z,73.46
2024-03-11T19:43:39.459Z,73.83
2024-03-11T19:47:08.432Z,73.52
2024-03-11T19:50:39.787Z,73.72
2024-03-11T19:53:44.976Z,73.75
2024-03-11T19:57:01.757Z,73.71
2024-03-11T20:00:26.985Z,73.43
2024-03-11T20:03:34.062Z,73.16
2024-03-11T20:06:33.523Z,73.37
2024-03-11T20:09:22.746Z,73.00
2024-03-11T20:12:25.392Z,72.92
2024-03-11T20:14:58.348Z,72.92
2024-03-11T20:18:05.756Z,72.42
2024-03-11T20:21:06.833Z,72.39
2024-03-11T20:24:12.307Z,71.96
2024-03-11T20:26:49.771Z,72.07
2024-03-11T20:29:27.346Z,71.92
2024-03-11T20:32:01.504Z,72.08
2024-03-11T20:34:32.556Z,71.99
2024-03-11T20:37:05.524Z,71.78
2024-03-11T20:39:39.128Z,71.58
2024-03-11T20:42:12.140Z,71.05
2024-03-11T20:44:43.526Z,71.07
2024-03-11T20:47:14.518Z,71.09
2024-03-11T20:49:45.403Z,71.32
2024-03-11T20:52:17.609Z,71.22
2024-03-11T20:54:48.662Z,70.75
2024-03-11T20:57:22.894Z,70.62
2024-03-11T20:59:54.531Z,70.66
2024-03-11T21:02:25.466Z,69.87
2024-03-11T21:04:57.052Z,69.62
2024-03-11T21:07:28.919Z,69.59
2024-03-11T21:10:00.338Z,69.85
2024-03-11T21:12:31.753Z,70.01
2024-03-11T21:15:04.478Z,69.75
2024-03-11T21:17:36.738Z,69.51
2024-03-11T21:20:24.202Z,69.75
2024-03-11T21:23:04.726Z,69.21
2024-03-11T21:25:54.036Z,69.32
2024-03-11T21:28:25.104Z,69.05
2024-03-11T21:30:56.799Z,69.20
2024-03-11T21:33:28.389Z,69.46
2024-03-11T21:35:59.560Z,69.12
2024-03-11T21:38:32.606Z,69.35
2024-03-11T21:41:05.750Z,68.62
2024-03-11T21:43:36.752Z,68.72
2024-03-11T21:46:10.738Z,68.76
2024-03-11T21:48:41.958Z,68.51
2024-03-11T21:51:14.276Z,68.44
2024-03-11T21:53:47.268Z,68.41
2024-03-11T21:56:18.219Z,68.30
2024-03-11T21:58:49.161Z,68.46
2024-03-11T22:01:20.389Z,68.56
2024-03-11T22:03:51.679Z,67.98
2024-03-11T22:06:22.837Z,67.86
2024-03-11T22:08:56.363Z,67.83
2024-03-11T22:11:29.667Z,67.99
2024-03-11T22:14:00.601Z,67.45
2024-03-11T22:16:31.516Z,67.29
2024-03-11T22:19:02.998Z,67.35
2024-03-11T22:21:34.234Z,67.57
2024-03-11T22:24:06.578Z,67.69
2024-03-11T22:26:37.485Z,67.28
2024-03-11T22:29:09.145Z,67.07
2024-03-11T22:31:40.342Z,66.34
2024-03-11T22:34:15.137Z,66.40
2024-03-11T22:36:47.316Z,66.63
2024-03-11T22:39:20.334Z,66.69
2024-03-11T22:41:51.707Z,66.44
2024-03-11T22:44:23.233Z,66.38
2024-03-11T22:46:54.230Z,66.44
2024-03-11T22:49:25.640Z,66.30
2024-03-11T22:51:56.682Z,65.95
2024-03-11T22:54:30.199Z,65.83
2024-03-11T22:57:11.995Z,65.58
2024-03-11T22:59:43.151Z,65.31
2024-03-11T23:02:18.308Z,65.60
2024-03-11T23:04:51.120Z,65.64
2024-03-11T23:07:24.487Z,65.13
2024-03-11T23:09:55.625Z,64.98
2024-03-11T23:12:26.803Z,65.31
2024-03-11T23:14:57.708Z,65.19
2024-03-11T23:17:28.696Z,65.13
2024-03-11T23:19:59.649Z,64.53
2024-03-11T23:22:30.556Z,64.65
2024-03-11T23:25:02.403Z,64.47
2024-03-11T23:27:33.508Z,64.06
2024-03-11T23:30:14.368Z,63.94
2024-03-11T23:32:45.364Z,63.59
2024-03-11T23:35:16.541Z,63.73
2024-03-11T23:37:47.612Z,63.59
2024-03-11T23:40:20.676Z,63.62
2024-03-11T23:42:53.445Z,63.51
2024-03-11T23:45:24.842Z,63.93
2024-03-11T23:47:57.865Z,63.79
2024-03-11T23:50:29.362Z,62.88
2024-03-11T23:53:00.310Z,63.36
2024-03-11T23:55:31.250Z,62.96
2024-03-11T23:58:02.283Z,62.53
